ARBO2: Arbuckle Lake

Data processed at Sat Oct 13 2018 23:32


All information presented herein is the property of the government of the United States of America and may be revised or deleted at any time without prior notice.
Dissemination of this information without the expressed written consent of the Public Affairs Office, Tulsa District U.S. Army Corps of Engineers is strictly prohibited.
These data are gathered electronically and, as presented, have not undergone any form of quality control. These data are not guaranteed to be valid or correct.
Go to home page.
Go to station list.
Go to home page.

Upstream stations:

Downstream station:
Previous Day
Next Day
Current Day
    
SHEF ID:       ARBO2     Arbuckle Lake
STATION TYPE:  RESERVOIR
Normal Pool:  Bottom =   827.00, Top =   872.00

               PRECIP PRECIP(A) ELEVATION   STORAGE    INFLOW   RELEASE   VOLTAGE  BAT-LOAD
                   in        in        ft     ac-ft       cfs       cfs      volt      volt
              Ccp-Rev   Ccp-Rev   Ccp-Rev   Ccp-Rev  Regi-Rev  Regi-Rev   Ccp-Rev   Ccp-Rev
(US/Central)
10/13 00:00      0.00      ----    876.43     83386       191         1     14.10     13.24
10/13 01:00      0.00      ----    876.44     83412       191         2     14.10     13.24
10/13 02:00      0.00      ----    876.44     83412       191         1     14.10     13.24
10/13 03:00      0.00      ----    876.43     83386       191         1     14.10     13.30
10/13 04:00      0.00      ----    876.44     83412       191         1     14.10     13.24
10/13 05:00      0.00      ----    876.46     83464       254         1     14.10     13.24
10/13 06:00      0.00      ----    876.46     83464       317         1     14.10     13.30
10/13 07:00      0.00      ----    876.47     83490       380         1     14.10     13.24
10/13 08:00      0.01      ----    876.48     83516       444         1     14.10     13.24
10/13 09:00      0.19      ----    876.50     83568       887         1     14.10     13.24
10/13 10:00      0.29      ----    876.53     83647      1583         1     14.10     13.30
10/13 11:00      0.36      ----    876.60     83830      2533         1     14.10     13.24
10/13 12:00      0.28      ----    876.72     84144      3553         1     14.10     13.24
10/13 13:00      0.07      ----    876.88     84562      4464         1     14.10     13.24
10/13 14:00      0.03      ----    877.06     85036      4928         1     14.10     13.24
10/13 15:00      0.01      ----    877.23     85491      5010         1     14.10     13.24
10/13 16:00      0.00      ----    877.37     85866      4709         1     14.10     13.30
10/13 17:00      0.00      ----    877.50     86213      4209         1     14.10     13.24
10/13 18:00      0.01      ----    877.61     86508      3562         1     14.10     13.24
10/13 19:00      0.00      ----    877.71     86775      3173         1     14.10     13.24
10/13 20:00      0.01      ----    877.78     86962      2655         1     14.10     13.24
10/13 21:00      0.00      ----    877.86     87177      2202         1     14.10     13.24
10/13 22:00      0.00      ----    877.91     87310      1878         1     14.10     13.24
10/13 23:00      0.00      ----    877.95     87417      1619         1     14.10     13.24